Time;durP1;ratioP1;P1;durP2;ratioP2;P2;SDS_P1;SDS_P2;PMS_P1;PMS_P2;Temp;Humidity;BMP_temperature;BMP_pressure;BME280_temperature;BME280_humidity;BME280_pressure;Samples;Min_cycle;Max_cycle;Signal;HPM_P1;HPM_P2
2021/07/19 00:00:43;;;;;;;5.50;3.40;;;20.70;99.90;;;;;;4974945;28;20050;-79
2021/07/19 00:03:11;;;;;;;6.10;3.45;;;20.60;99.90;;;;;;4974095;28;20113;-77
2021/07/19 00:05:39;;;;;;;6.28;3.20;;;20.50;99.90;;;;;;4975084;28;20047;-79
2021/07/19 00:08:06;;;;;;;6.25;3.10;;;20.50;99.90;;;;;;4969480;28;20077;-79
2021/07/19 00:10:34;;;;;;;4.80;3.08;;;20.40;99.90;;;;;;4952912;29;20058;-79
2021/07/19 00:13:01;;;;;;;5.10;3.30;;;20.40;99.90;;;;;;4968601;28;20049;-79
2021/07/19 00:15:29;;;;;;;6.07;3.40;;;20.50;99.90;;;;;;4972284;28;20065;-79
2021/07/19 00:17:58;;;;;;;6.43;3.28;;;20.40;99.90;;;;;;4972112;28;20043;-80
2021/07/19 00:20:26;;;;;;;5.47;3.40;;;20.40;99.90;;;;;;4972305;28;20081;-80
2021/07/19 00:22:53;;;;;;;6.50;3.40;;;20.40;99.90;;;;;;4971235;28;20515;-80
2021/07/19 00:25:21;;;;;;;7.13;3.83;;;20.20;99.90;;;;;;4972024;28;20055;-80
2021/07/19 00:27:54;;;;;;;6.75;3.67;;;20.20;99.90;;;;;;4972349;28;20138;-80
2021/07/19 00:30:22;;;;;;;5.95;3.22;;;20.10;99.90;;;;;;4972457;28;20456;-80
2021/07/19 00:32:50;;;;;;;6.38;3.42;;;20.10;99.90;;;;;;4971606;28;20803;-79
2021/07/19 00:35:18;;;;;;;6.25;3.38;;;19.90;99.90;;;;;;4972454;28;20685;-80
2021/07/19 00:37:45;;;;;;;6.38;3.28;;;19.80;99.90;;;;;;4972181;28;20468;-80
2021/07/19 00:40:16;;;;;;;5.32;3.30;;;19.80;99.90;;;;;;4971781;28;20485;-80
2021/07/19 00:42:46;;;;;;;7.43;3.55;;;19.70;99.90;;;;;;4971893;28;20055;-78
2021/07/19 00:45:18;;;;;;;6.07;3.75;;;19.60;99.90;;;;;;4972325;28;20086;-80
2021/07/19 00:47:47;;;;;;;7.72;3.85;;;19.50;99.90;;;;;;4967596;28;20069;-80
2021/07/19 00:50:17;;;;;;;5.97;3.45;;;19.40;99.90;;;;;;4952845;29;20105;-79
2021/07/19 00:52:45;;;;;;;6.45;3.55;;;19.40;99.90;;;;;;4966229;28;20567;-80
2021/07/19 00:55:16;;;;;;;5.82;3.55;;;19.30;99.90;;;;;;4972176;28;20051;-80
2021/07/19 00:57:48;;;;;;;6.70;3.33;;;19.30;99.90;;;;;;4972007;28;20046;-79
2021/07/19 01:00:18;;;;;;;5.90;3.40;;;19.30;99.90;;;;;;4973547;28;20050;-80
2021/07/19 01:02:49;;;;;;;5.85;3.15;;;19.40;99.90;;;;;;4977292;28;20145;-79
2021/07/19 01:05:17;;;;;;;5.40;2.97;;;19.40;99.90;;;;;;4978077;28;20055;-79
2021/07/19 01:07:45;;;;;;;6.00;3.65;;;19.40;99.90;;;;;;4977888;28;20381;-79
2021/07/19 01:10:17;;;;;;;6.68;3.60;;;19.40;99.90;;;;;;4977818;28;20583;-79
2021/07/19 01:12:45;;;;;;;6.38;3.42;;;19.40;99.90;;;;;;4978337;28;20139;-80
2021/07/19 01:15:13;;;;;;;5.47;3.17;;;19.40;99.90;;;;;;4978112;28;20047;-79
2021/07/19 01:17:43;;;;;;;5.60;3.20;;;19.40;99.90;;;;;;4977756;28;20082;-80
2021/07/19 01:20:11;;;;;;;5.90;3.60;;;19.40;99.90;;;;;;4987803;28;20050;-80
2021/07/19 01:23:14;;;;;;;5.55;3.45;;;19.40;99.90;;;;;;4988161;28;20085;-80
2021/07/19 01:26:10;;;;;;;7.40;3.53;;;19.40;99.90;;;;;;4988501;28;20078;-78
2021/07/19 01:28:44;;;;;;;8.60;3.90;;;19.30;99.90;;;;;;4981967;28;20074;-79
2021/07/19 01:31:14;;;;;;;7.85;3.80;;;19.20;99.90;;;;;;4977882;28;20050;-79
2021/07/19 01:33:47;;;;;;;6.47;3.17;;;19.20;99.90;;;;;;4958428;29;20059;-79
2021/07/19 01:36:18;;;;;;;5.70;3.40;;;19.10;99.90;;;;;;4958317;28;20477;-80
2021/07/19 01:38:45;;;;;;;6.25;3.55;;;19.10;99.90;;;;;;4958386;28;20061;-79
2021/07/19 01:41:16;;;;;;;7.40;3.50;;;19.10;99.90;;;;;;4970604;28;20521;-79
2021/07/19 01:43:46;;;;;;;5.97;3.22;;;19.00;99.90;;;;;;4958106;28;20058;-80
2021/07/19 01:46:16;;;;;;;5.88;3.67;;;19.00;99.90;;;;;;4958375;28;20133;-81
2021/07/19 01:48:43;;;;;;;6.72;3.67;;;18.90;99.90;;;;;;4975992;28;20051;-80
2021/07/19 01:51:11;;;;;;;6.53;3.40;;;18.80;99.90;;;;;;4977219;28;20157;-80
2021/07/19 01:53:38;;;;;;;5.47;3.25;;;18.80;99.90;;;;;;4976974;28;20051;-80
2021/07/19 01:56:06;;;;;;;5.22;3.28;;;18.80;99.90;;;;;;4976886;28;20556;-80
2021/07/19 01:58:34;;;;;;;7.13;3.90;;;18.80;99.90;;;;;;4977356;28;20137;-79
2021/07/19 02:01:05;;;;;;;6.72;3.42;;;18.80;99.90;;;;;;4977371;28;20142;-79
2021/07/19 02:03:32;;;;;;;6.15;3.42;;;18.80;99.90;;;;;;4976770;28;20556;-78
2021/07/19 02:06:00;;;;;;;5.90;3.28;;;18.80;99.90;;;;;;4976773;28;20475;-79
2021/07/19 02:08:28;;;;;;;5.13;3.30;;;18.90;99.90;;;;;;4976711;28;20499;-79
2021/07/19 02:10:57;;;;;;;6.80;3.55;;;18.90;99.90;;;;;;4976228;28;20051;-80
2021/07/19 02:13:27;;;;;;;5.32;3.55;;;18.90;99.90;;;;;;4976323;28;20137;-80
2021/07/19 02:15:58;;;;;;;6.22;3.70;;;18.90;99.90;;;;;;4976718;28;20567;-80
2021/07/19 02:18:27;;;;;;;7.68;3.63;;;19.00;99.90;;;;;;4976810;28;20046;-80
2021/07/19 02:21:01;;;;;;;6.80;3.90;;;19.00;99.90;;;;;;4976675;28;20050;-80
2021/07/19 02:23:29;;;;;;;7.78;4.25;;;19.00;99.90;;;;;;4976527;28;20130;-80
2021/07/19 02:25:58;;;;;;;7.80;3.88;;;18.90;99.90;;;;;;4976371;28;20046;-79
2021/07/19 02:28:25;;;;;;;8.70;4.00;;;18.80;99.90;;;;;;4976495;28;20483;-80
2021/07/19 02:30:54;;;;;;;7.88;4.00;;;18.70;99.90;;;;;;4976326;28;20055;-79
2021/07/19 02:33:22;;;;;;;7.40;4.22;;;18.60;99.90;;;;;;4976174;28;20129;-80
2021/07/19 02:35:52;;;;;;;7.88;4.10;;;18.60;99.90;;;;;;4976440;28;20053;-79
2021/07/19 02:38:20;;;;;;;6.50;3.90;;;18.50;99.90;;;;;;4976614;28;20489;-78
2021/07/19 02:40:49;;;;;;;7.35;4.00;;;18.50;99.90;;;;;;4975960;28;20055;-80
2021/07/19 02:43:17;;;;;;;7.47;3.60;;;18.40;99.90;;;;;;4975982;28;20137;-79
2021/07/19 02:45:47;;;;;;;6.43;4.10;;;18.40;99.90;;;;;;4976110;28;20138;-79
2021/07/19 02:48:16;;;;;;;7.95;4.15;;;18.40;99.90;;;;;;4976383;28;20073;-79
2021/07/19 02:50:45;;;;;;;7.75;3.88;;;18.40;99.90;;;;;;4975917;28;20405;-79
2021/07/19 02:53:16;;;;;;;6.40;3.90;;;18.40;99.90;;;;;;4976148;28;20053;-79
2021/07/19 02:55:45;;;;;;;7.20;4.28;;;18.50;99.90;;;;;;4975768;28;20085;-79
2021/07/19 02:58:14;;;;;;;7.57;4.55;;;18.50;99.90;;;;;;4976014;28;20049;-79
2021/07/19 03:00:42;;;;;;;7.55;4.65;;;18.50;99.90;;;;;;4976053;28;20137;-78
2021/07/19 03:03:15;;;;;;;8.20;4.28;;;18.40;99.90;;;;;;4973843;28;20045;-77
2021/07/19 03:05:45;;;;;;;7.10;4.10;;;18.40;99.90;;;;;;4974303;28;20126;-80
2021/07/19 03:08:15;;;;;;;8.52;4.05;;;18.40;99.90;;;;;;4973702;28;20138;-79
2021/07/19 03:10:45;;;;;;;7.35;4.60;;;18.40;99.90;;;;;;4972967;28;20137;-78
2021/07/19 03:13:15;;;;;;;7.13;4.20;;;18.40;99.90;;;;;;4973513;28;20439;-80
2021/07/19 03:15:46;;;;;;;8.75;4.32;;;18.40;99.90;;;;;;4973563;28;20133;-79
2021/07/19 03:18:13;;;;;;;7.55;4.10;;;18.30;99.90;;;;;;4973599;28;20047;-80
2021/07/19 03:20:42;;;;;;;9.68;4.47;;;18.40;99.90;;;;;;4972872;28;20740;-80
2021/07/19 03:23:15;;;;;;;7.38;4.60;;;18.30;99.90;;;;;;4972960;28;20047;-79
2021/07/19 03:25:44;;;;;;;8.02;4.28;;;18.40;99.90;;;;;;4972270;28;20126;-80
2021/07/19 03:28:13;;;;;;;7.43;4.40;;;18.40;99.90;;;;;;4973281;28;20420;-80
2021/07/19 03:30:43;;;;;;;6.65;4.43;;;18.40;99.90;;;;;;4972843;28;20131;-80
2021/07/19 03:33:11;;;;;;;8.48;4.60;;;18.40;99.90;;;;;;4973125;28;20437;-79
2021/07/19 03:35:38;;;;;;;6.85;4.55;;;18.30;99.90;;;;;;4973257;28;20133;-79
2021/07/19 03:38:06;;;;;;;7.80;4.68;;;18.20;99.90;;;;;;4972904;28;20077;-79
2021/07/19 03:40:36;;;;;;;7.95;4.70;;;18.10;99.90;;;;;;4972560;28;20465;-78
2021/07/19 03:43:05;;;;;;;6.70;4.38;;;18.00;99.90;;;;;;4972183;28;20053;-79
2021/07/19 03:45:33;;;;;;;7.95;4.40;;;18.00;99.90;;;;;;4972791;28;20496;-79
2021/07/19 03:48:02;;;;;;;6.43;4.15;;;18.00;99.90;;;;;;4972846;28;20057;-78
2021/07/19 03:50:31;;;;;;;7.30;4.15;;;18.00;99.90;;;;;;4972537;28;20454;-78
2021/07/19 03:52:59;;;;;;;7.75;4.75;;;18.00;99.90;;;;;;4972492;28;20141;-79
2021/07/19 03:55:26;;;;;;;9.13;4.85;;;18.00;99.90;;;;;;4972115;28;20137;-79
2021/07/19 03:57:55;;;;;;;8.07;4.25;;;18.00;99.90;;;;;;4972730;28;20060;-80
2021/07/19 04:00:23;;;;;;;8.55;5.18;;;18.00;99.90;;;;;;4972852;28;20078;-80
2021/07/19 04:02:52;;;;;;;7.68;4.30;;;18.00;99.90;;;;;;4974177;28;20078;-78
2021/07/19 04:05:21;;;;;;;7.55;4.65;;;18.00;99.90;;;;;;4974295;28;20042;-80
2021/07/19 04:07:50;;;;;;;8.00;4.65;;;18.00;99.90;;;;;;4974925;28;20101;-80
2021/07/19 04:10:21;;;;;;;8.15;4.75;;;18.00;99.90;;;;;;4974070;28;20397;-80
2021/07/19 04:12:51;;;;;;;9.43;5.13;;;17.90;99.90;;;;;;4974595;28;20082;-78
2021/07/19 04:15:20;;;;;;;10.85;5.15;;;17.90;99.90;;;;;;4974787;28;20090;-76
2021/07/19 04:17:47;;;;;;;8.93;4.90;;;17.90;99.90;;;;;;4974752;28;20094;-78
2021/07/19 04:20:17;;;;;;;10.15;5.30;;;17.80;99.90;;;;;;4974798;28;20102;-79
2021/07/19 04:22:44;;;;;;;8.05;4.93;;;17.70;99.90;;;;;;4974231;28;20043;-79
2021/07/19 04:25:14;;;;;;;9.43;5.05;;;17.70;99.90;;;;;;4974470;28;20101;-79
2021/07/19 04:27:44;;;;;;;8.50;5.45;;;17.70;99.90;;;;;;4974569;28;20485;-78
2021/07/19 04:30:13;;;;;;;9.63;5.15;;;17.70;99.90;;;;;;4974346;28;20047;-79
2021/07/19 04:32:45;;;;;;;8.63;5.00;;;17.60;99.90;;;;;;4974056;28;20493;-80
2021/07/19 04:35:19;;;;;;;9.02;5.07;;;17.60;99.90;;;;;;4974215;28;20114;-79
2021/07/19 04:37:48;;;;;;;9.77;5.35;;;17.60;99.90;;;;;;4974544;28;20050;-80
2021/07/19 04:40:16;;;;;;;8.57;5.03;;;17.60;99.90;;;;;;4974112;28;20082;-78
2021/07/19 04:42:43;;;;;;;7.90;5.00;;;17.60;99.90;;;;;;4974588;28;20089;-79
2021/07/19 04:45:11;;;;;;;8.15;4.70;;;17.60;99.90;;;;;;4974748;28;20086;-78
2021/07/19 04:47:38;;;;;;;10.75;5.65;;;17.70;99.90;;;;;;4974823;28;20137;-78
2021/07/19 04:50:08;;;;;;;10.07;5.25;;;17.70;99.90;;;;;;4974569;28;20497;-78
2021/07/19 04:52:36;;;;;;;8.93;5.30;;;17.80;99.90;;;;;;4974574;28;20055;-78
2021/07/19 04:55:04;;;;;;;10.38;5.32;;;17.80;99.90;;;;;;4983943;28;20130;-78
2021/07/19 04:57:34;;;;;;;8.57;5.03;;;17.80;99.90;;;;;;4983580;28;20115;-78
2021/07/19 05:00:05;;;;;;;8.25;4.53;;;17.80;99.90;;;;;;4984201;28;20202;-78
2021/07/19 05:02:35;;;;;;;8.05;4.88;;;17.70;99.90;;;;;;4984841;28;20628;-77
2021/07/19 05:05:03;;;;;;;7.72;4.32;;;17.70;99.90;;;;;;4985366;28;20070;-79
2021/07/19 05:07:33;;;;;;;9.77;4.78;;;17.70;99.90;;;;;;4976896;28;20086;-78
2021/07/19 05:10:02;;;;;;;8.10;4.15;;;17.80;99.90;;;;;;4976386;28;20134;-78
2021/07/19 05:12:31;;;;;;;7.43;4.38;;;17.80;99.90;;;;;;4983827;28;20085;-79
2021/07/19 05:14:59;;;;;;;6.47;4.10;;;17.80;99.90;;;;;;4983920;28;20130;-79
2021/07/19 05:17:28;;;;;;;7.38;4.47;;;17.90;99.90;;;;;;4981192;28;20054;-78
2021/07/19 05:19:56;;;;;;;6.18;4.13;;;17.90;99.90;;;;;;4974457;28;20047;-79
2021/07/19 05:22:23;;;;;;;7.15;4.28;;;18.00;99.90;;;;;;4974612;28;20050;-79
2021/07/19 05:24:57;;;;;;;6.75;4.20;;;18.00;99.90;;;;;;4975500;28;20053;-79
2021/07/19 05:27:25;;;;;;;8.68;4.80;;;18.10;99.90;;;;;;4975836;28;20050;-78
2021/07/19 05:29:52;;;;;;;7.75;4.32;;;18.20;99.90;;;;;;4975285;28;20137;-78
2021/07/19 05:32:19;;;;;;;8.55;3.92;;;18.20;99.90;;;;;;4982695;28;20089;-79
2021/07/19 05:34:46;;;;;;;6.63;4.20;;;18.30;99.90;;;;;;4984407;28;20082;-79
2021/07/19 05:37:13;;;;;;;6.45;3.97;;;18.40;99.90;;;;;;4983217;28;20054;-78
2021/07/19 05:39:40;;;;;;;8.60;4.47;;;18.40;99.90;;;;;;4980326;28;20126;-78
2021/07/19 05:42:09;;;;;;;6.90;4.13;;;18.50;99.90;;;;;;4975488;28;20126;-78
2021/07/19 05:44:36;;;;;;;6.25;4.00;;;18.60;99.90;;;;;;4979680;28;20101;-78
2021/07/19 05:47:04;;;;;;;8.38;4.25;;;18.60;99.90;;;;;;4985187;28;20077;-78
2021/07/19 05:49:31;;;;;;;7.43;4.43;;;18.60;99.90;;;;;;4987745;28;20083;-78
2021/07/19 05:51:58;;;;;;;7.15;4.10;;;18.70;99.90;;;;;;4987821;28;20102;-78
2021/07/19 05:54:25;;;;;;;7.65;4.00;;;18.80;99.90;;;;;;4987141;28;20082;-77
2021/07/19 05:56:52;;;;;;;7.10;4.13;;;18.80;99.90;;;;;;4987340;28;20102;-78
2021/07/19 05:59:21;;;;;;;6.97;4.00;;;18.90;99.90;;;;;;4987115;28;20188;-79
2021/07/19 06:01:48;;;;;;;7.18;4.13;;;18.90;99.90;;;;;;4983253;28;20149;-78
2021/07/19 06:04:15;;;;;;;7.28;4.18;;;19.00;99.90;;;;;;4976934;28;20482;-79
2021/07/19 06:06:43;;;;;;;5.85;3.80;;;19.00;99.90;;;;;;4977066;28;20484;-77
2021/07/19 06:09:10;;;;;;;6.75;4.43;;;19.00;99.90;;;;;;4976845;28;20057;-78
2021/07/19 06:11:37;;;;;;;8.00;4.25;;;19.10;99.90;;;;;;4976907;28;20138;-78
2021/07/19 06:14:04;;;;;;;8.80;4.10;;;19.10;99.90;;;;;;4976872;28;20080;-79
2021/07/19 06:16:32;;;;;;;7.20;4.68;;;19.20;99.90;;;;;;4976940;28;20129;-79
2021/07/19 06:18:59;;;;;;;6.28;3.85;;;19.30;99.90;;;;;;4976925;28;20556;-79
2021/07/19 06:21:26;;;;;;;6.40;4.05;;;19.30;99.90;;;;;;4976650;28;20129;-78
2021/07/19 06:23:53;;;;;;;6.32;4.00;;;19.40;99.90;;;;;;4977106;28;20469;-79
2021/07/19 06:26:20;;;;;;;7.70;4.78;;;19.40;99.90;;;;;;4976688;28;20134;-78
2021/07/19 06:28:47;;;;;;;6.57;3.65;;;19.40;99.90;;;;;;4976783;28;20462;-78
2021/07/19 06:31:14;;;;;;;5.88;4.05;;;19.40;99.90;;;;;;4976818;28;20125;-79
2021/07/19 06:33:43;;;;;;;6.43;3.95;;;19.50;99.90;;;;;;4976287;28;20057;-79
2021/07/19 06:36:10;;;;;;;8.02;3.97;;;19.60;99.90;;;;;;4976321;28;20133;-79
2021/07/19 06:38:37;;;;;;;6.25;3.65;;;19.60;99.90;;;;;;4976575;28;20462;-80
2021/07/19 06:41:04;;;;;;;6.10;3.75;;;19.70;99.90;;;;;;4976431;28;20131;-78
2021/07/19 06:43:31;;;;;;;6.55;3.50;;;19.70;99.90;;;;;;4976004;28;20501;-79
2021/07/19 06:45:58;;;;;;;5.63;3.67;;;19.70;99.90;;;;;;4976924;28;20126;-77
2021/07/19 06:48:25;;;;;;;7.00;3.90;;;19.80;99.90;;;;;;4976239;28;20141;-78
2021/07/19 06:50:53;;;;;;;8.02;4.07;;;19.90;99.90;;;;;;4976306;28;20134;-78
2021/07/19 06:53:20;;;;;;;5.68;3.40;;;19.90;99.90;;;;;;4984440;28;20054;-77
2021/07/19 06:55:47;;;;;;;5.95;3.40;;;20.00;99.90;;;;;;4986612;28;20138;-79
2021/07/19 06:58:14;;;;;;;5.93;3.35;;;20.00;99.90;;;;;;4985555;28;20142;-79
2021/07/19 07:00:42;;;;;;;5.30;3.55;;;20.10;99.90;;;;;;4982669;28;20089;-79
2021/07/19 07:03:08;;;;;;;6.70;3.63;;;20.20;99.90;;;;;;4975719;28;20134;-79
2021/07/19 07:05:35;;;;;;;5.95;3.38;;;20.30;99.90;;;;;;4976272;28;20049;-79
2021/07/19 07:08:05;;;;;;;4.18;2.80;;;20.30;99.90;;;;;;4975862;28;20481;-78
2021/07/19 07:10:32;;;;;;;7.47;3.05;;;20.40;99.90;;;;;;4975933;28;20054;-78
2021/07/19 07:12:59;;;;;;;5.75;3.20;;;20.40;99.90;;;;;;4976297;28;20142;-79
2021/07/19 07:15:27;;;;;;;5.97;3.50;;;20.50;99.90;;;;;;4975696;28;20133;-79
2021/07/19 07:17:54;;;;;;;5.78;3.70;;;20.50;99.90;;;;;;4975577;28;20079;-79
2021/07/19 07:20:21;;;;;;;5.97;3.10;;;20.50;99.60;;;;;;4975673;28;20042;-77
2021/07/19 07:22:48;;;;;;;6.47;3.50;;;20.60;99.70;;;;;;4975467;28;20402;-79
2021/07/19 07:25:16;;;;;;;6.35;3.30;;;20.60;99.60;;;;;;4975341;28;20138;-79
2021/07/19 07:27:43;;;;;;;6.72;3.33;;;20.60;99.50;;;;;;4975819;28;20054;-79
2021/07/19 07:30:11;;;;;;;7.97;3.28;;;20.60;99.40;;;;;;4975609;28;20479;-79
2021/07/19 07:32:39;;;;;;;7.40;3.15;;;20.70;99.30;;;;;;4975161;28;20053;-80
2021/07/19 07:35:08;;;;;;;5.45;2.90;;;20.70;99.30;;;;;;4975476;28;20481;-79
2021/07/19 07:37:37;;;;;;;4.90;3.08;;;20.80;99.30;;;;;;4975247;28;20050;-78
2021/07/19 07:40:06;;;;;;;5.53;3.55;;;20.90;99.20;;;;;;4975069;28;20477;-78
2021/07/19 07:42:35;;;;;;;5.78;3.47;;;20.90;99.20;;;;;;4975750;28;20137;-78
2021/07/19 07:45:02;;;;;;;5.88;3.22;;;20.90;99.20;;;;;;4974959;28;20086;-78
2021/07/19 07:47:29;;;;;;;5.40;3.00;;;21.00;98.90;;;;;;4975578;28;20135;-77
2021/07/19 07:49:56;;;;;;;5.13;3.22;;;21.00;98.90;;;;;;4976087;28;20138;-78
2021/07/19 07:52:23;;;;;;;5.05;2.90;;;21.10;98.80;;;;;;4975955;28;20137;-78
2021/07/19 07:54:50;;;;;;;5.80;2.97;;;21.10;98.60;;;;;;4975772;28;20051;-78
2021/07/19 07:57:17;;;;;;;5.13;2.92;;;21.20;98.60;;;;;;4975928;28;20130;-79
2021/07/19 07:59:46;;;;;;;4.72;3.20;;;21.30;98.50;;;;;;4978782;28;20047;-79
2021/07/19 08:02:13;;;;;;;4.60;3.03;;;21.30;98.20;;;;;;4985277;28;20089;-79
2021/07/19 08:04:40;;;;;;;5.72;3.20;;;21.40;98.10;;;;;;4984954;28;20110;-79
2021/07/19 08:07:09;;;;;;;6.63;3.67;;;21.40;98.00;;;;;;4986423;28;20078;-77
2021/07/19 08:09:36;;;;;;;4.88;3.13;;;21.40;97.90;;;;;;4985616;28;20061;-77
2021/07/19 08:12:04;;;;;;;5.22;2.63;;;21.40;97.90;;;;;;4986360;28;20082;-80
2021/07/19 08:14:31;;;;;;;4.97;2.92;;;21.50;97.90;;;;;;4985774;28;20054;-78
2021/07/19 08:16:59;;;;;;;5.10;3.15;;;21.50;97.90;;;;;;4985318;28;20102;-78
2021/07/19 08:19:32;;;;;;;5.07;3.38;;;21.60;97.90;;;;;;4985405;28;20138;-78
2021/07/19 08:22:00;;;;;;;4.80;3.22;;;21.60;97.70;;;;;;4978947;28;20105;-79
2021/07/19 08:24:27;;;;;;;5.28;2.83;;;21.70;97.70;;;;;;4974885;28;20423;-78
2021/07/19 08:26:54;;;;;;;6.60;3.70;;;21.70;97.70;;;;;;4974757;28;20488;-78
2021/07/19 08:29:21;;;;;;;6.43;3.58;;;21.80;97.70;;;;;;4971037;28;20133;-78
2021/07/19 08:31:48;;;;;;;5.43;3.30;;;21.80;97.70;;;;;;4978612;28;20114;-78
2021/07/19 08:34:17;;;;;;;5.25;3.33;;;21.80;97.70;;;;;;4981834;28;20071;-77
2021/07/19 08:36:44;;;;;;;4.70;3.08;;;21.90;97.70;;;;;;4981649;28;20552;-78
2021/07/19 08:39:11;;;;;;;5.18;3.50;;;21.90;97.60;;;;;;4981691;28;20071;-76
2021/07/19 08:41:38;;;;;;;6.38;4.18;;;22.00;97.40;;;;;;4982206;28;20110;-77
2021/07/19 08:44:07;;;;;;;4.93;3.15;;;22.00;97.00;;;;;;4981525;28;20508;-77
2021/07/19 08:46:35;;;;;;;5.13;3.30;;;22.10;97.10;;;;;;4982776;28;20051;-79
2021/07/19 08:49:03;;;;;;;7.13;3.70;;;22.10;96.90;;;;;;4981566;28;20054;-78
2021/07/19 08:51:31;;;;;;;5.20;3.45;;;22.10;96.60;;;;;;4981951;28;20111;-79
2021/07/19 08:54:00;;;;;;;4.38;3.00;;;22.20;96.50;;;;;;4973084;28;20059;-78
2021/07/19 08:56:29;;;;;;;6.72;3.15;;;22.20;96.50;;;;;;4974217;28;20070;-77
2021/07/19 08:58:57;;;;;;;5.55;3.30;;;22.30;96.50;;;;;;4981495;28;20058;-78
2021/07/19 09:01:24;;;;;;;5.75;3.30;;;22.30;96.20;;;;;;4981147;28;20074;-78
2021/07/19 09:03:51;;;;;;;4.50;3.22;;;22.40;96.30;;;;;;4981254;28;20138;-78
2021/07/19 09:06:18;;;;;;;5.60;3.00;;;22.50;96.20;;;;;;4981041;28;20138;-77
2021/07/19 09:08:52;;;;;;;4.60;2.90;;;22.50;96.20;;;;;;4980672;28;20138;-78
2021/07/19 09:11:21;;;;;;;4.50;2.80;;;22.60;96.30;;;;;;4981435;28;20129;-76
2021/07/19 09:14:00;;;;;;;4.78;2.80;;;22.70;96.40;;;;;;4980810;28;20122;-78
2021/07/19 09:16:39;;;;;;;4.95;2.88;;;22.70;96.40;;;;;;4980877;28;20130;-77
2021/07/19 09:19:08;;;;;;;6.00;3.30;;;22.80;96.40;;;;;;4981018;28;20114;-77
2021/07/19 09:21:38;;;;;;;4.90;2.53;;;22.90;96.40;;;;;;4982692;28;20073;-79
2021/07/19 09:24:09;;;;;;;4.35;2.30;;;23.00;95.80;;;;;;4984874;28;20069;-83
2021/07/19 09:26:39;;;;;;;3.80;2.45;;;23.00;95.40;;;;;;4985379;28;20135;-77
2021/07/19 09:29:10;;;;;;;4.03;2.22;;;23.00;95.30;;;;;;4984883;28;20083;-78
2021/07/19 09:31:39;;;;;;;6.25;2.35;;;23.10;95.50;;;;;;4984703;28;20194;-77
2021/07/19 09:34:13;;;;;;;4.80;2.50;;;23.10;95.50;;;;;;4984274;28;20492;-76
2021/07/19 09:36:55;;;;;;;4.15;2.20;;;23.10;95.60;;;;;;4984165;28;20085;-76
2021/07/19 09:39:24;;;;;;;5.10;3.00;;;23.10;95.70;;;;;;4979801;28;20129;-77
2021/07/19 09:41:51;;;;;;;4.57;2.90;;;23.10;95.50;;;;;;4974958;28;20051;-76
2021/07/19 09:44:22;;;;;;;4.18;2.50;;;23.20;95.40;;;;;;4974506;28;20436;-77
2021/07/19 09:46:49;;;;;;;3.70;2.33;;;23.20;95.70;;;;;;4973968;28;20097;-77
2021/07/19 09:49:17;;;;;;;4.38;2.10;;;23.20;95.70;;;;;;4974643;28;20055;-75
2021/07/19 09:51:44;;;;;;;4.65;2.25;;;23.20;95.80;;;;;;4974976;28;20488;-78
2021/07/19 09:54:14;;;;;;;4.05;2.10;;;23.30;95.90;;;;;;4974597;28;20051;-77
2021/07/19 09:56:42;;;;;;;3.47;1.90;;;23.40;95.70;;;;;;4974933;28;20057;-78
2021/07/19 09:59:13;;;;;;;4.40;2.60;;;23.40;95.70;;;;;;4974358;28;20051;-78
2021/07/19 10:01:43;;;;;;;4.05;2.40;;;23.50;95.40;;;;;;4973887;28;20062;-78
2021/07/19 10:04:14;;;;;;;4.95;2.70;;;23.50;95.10;;;;;;4974479;28;20047;-77
2021/07/19 10:06:43;;;;;;;5.50;3.13;;;23.60;94.30;;;;;;4974359;28;20078;-76
2021/07/19 10:09:14;;;;;;;4.65;2.95;;;23.70;93.90;;;;;;4974189;28;20057;-78
2021/07/19 10:11:47;;;;;;;3.88;2.30;;;23.70;93.50;;;;;;4973789;28;20519;-77
2021/07/19 10:14:24;;;;;;;3.58;2.10;;;23.80;93.30;;;;;;4973258;28;20082;-77
2021/07/19 10:16:52;;;;;;;5.18;2.00;;;23.90;92.90;;;;;;4973829;28;20053;-77
2021/07/19 10:19:20;;;;;;;5.00;2.42;;;24.00;92.50;;;;;;4973836;28;20053;-77
2021/07/19 10:21:47;;;;;;;4.72;2.55;;;24.00;92.30;;;;;;4973944;28;20497;-78
2021/07/19 10:24:15;;;;;;;4.65;2.30;;;24.10;92.10;;;;;;4974039;28;20412;-77
2021/07/19 10:26:44;;;;;;;4.25;2.28;;;24.20;91.80;;;;;;4973713;28;20054;-77
2021/07/19 10:29:13;;;;;;;4.68;2.55;;;24.20;91.50;;;;;;4973724;28;20089;-78
2021/07/19 10:31:40;;;;;;;4.88;2.83;;;24.30;91.70;;;;;;4973653;28;20046;-78
2021/07/19 10:34:08;;;;;;;4.93;2.78;;;24.30;91.60;;;;;;4972768;28;20064;-77
2021/07/19 10:36:40;;;;;;;4.70;2.88;;;24.30;91.40;;;;;;4973537;28;20051;-77
2021/07/19 10:39:12;;;;;;;6.50;3.00;;;24.20;91.10;;;;;;4973466;28;20061;-77
2021/07/19 10:41:39;;;;;;;4.60;2.60;;;24.20;91.20;;;;;;4973633;28;20150;-77
2021/07/19 10:44:12;;;;;;;3.90;2.60;;;24.20;91.20;;;;;;4973733;28;20111;-78
2021/07/19 10:46:41;;;;;;;4.72;2.67;;;24.20;91.30;;;;;;4973094;28;20416;-78
2021/07/19 10:49:10;;;;;;;4.25;2.33;;;24.10;91.40;;;;;;4973694;28;20065;-78
2021/07/19 10:51:45;;;;;;;4.72;2.53;;;24.10;91.60;;;;;;4973638;28;20055;-76
2021/07/19 10:54:15;;;;;;;3.80;2.58;;;24.10;91.90;;;;;;4972945;28;20405;-77
2021/07/19 10:56:42;;;;;;;4.65;2.42;;;24.00;92.30;;;;;;4973450;28;20134;-79
2021/07/19 10:59:11;;;;;;;4.03;2.33;;;24.00;92.20;;;;;;4973193;28;20511;-80
2021/07/19 11:01:39;;;;;;;4.18;2.45;;;24.00;92.50;;;;;;4972826;28;20077;-78
2021/07/19 11:04:16;;;;;;;4.00;2.10;;;24.00;92.70;;;;;;4973175;28;20047;-78
2021/07/19 11:06:49;;;;;;;4.30;2.53;;;24.10;92.60;;;;;;4972943;28;20051;-78
2021/07/19 11:09:22;;;;;;;4.43;2.30;;;24.20;92.10;;;;;;4973864;28;20051;-79
2021/07/19 11:11:49;;;;;;;3.30;1.95;;;24.20;91.80;;;;;;4973245;28;20146;-77
2021/07/19 11:14:21;;;;;;;5.63;2.30;;;24.30;91.70;;;;;;4972916;28;20416;-78
2021/07/19 11:16:50;;;;;;;3.75;2.13;;;24.30;91.30;;;;;;4973295;28;20058;-77
2021/07/19 11:19:29;;;;;;;3.92;2.40;;;24.40;90.70;;;;;;4972379;28;20058;-77
2021/07/19 11:22:07;;;;;;;3.58;2.00;;;24.40;90.90;;;;;;4972775;28;20056;-77
2021/07/19 11:24:43;;;;;;;3.50;1.88;;;24.50;91.20;;;;;;4972945;28;20066;-78
2021/07/19 11:27:11;;;;;;;4.60;2.00;;;24.70;91.40;;;;;;4972951;28;20050;-78
2021/07/19 11:29:42;;;;;;;3.10;1.90;;;24.80;91.50;;;;;;4972978;28;20138;-77
2021/07/19 11:32:19;;;;;;;4.13;2.60;;;24.90;91.30;;;;;;4972492;28;20085;-78
2021/07/19 11:34:48;;;;;;;4.07;2.50;;;25.00;91.00;;;;;;4972847;28;20065;-78
2021/07/19 11:37:17;;;;;;;4.07;2.50;;;25.00;90.80;;;;;;4972569;28;20085;-78
2021/07/19 11:39:48;;;;;;;4.63;2.40;;;25.10;90.60;;;;;;4972857;28;20047;-76
2021/07/19 11:42:16;;;;;;;3.85;2.00;;;25.10;90.70;;;;;;4973067;28;20134;-78
2021/07/19 11:44:45;;;;;;;3.83;2.15;;;25.20;90.80;;;;;;4972346;28;20417;-78
2021/07/19 11:47:16;;;;;;;4.38;2.13;;;25.30;89.90;;;;;;4972757;28;20050;-80
2021/07/19 11:49:44;;;;;;;4.55;1.90;;;25.40;87.70;;;;;;4972266;28;20544;-81
2021/07/19 11:52:12;;;;;;;3.55;2.28;;;25.50;86.70;;;;;;4972558;28;20050;-81
2021/07/19 11:54:39;;;;;;;3.65;2.30;;;25.50;84.60;;;;;;4976527;28;20098;-83
2021/07/19 11:57:09;;;;;;;4.13;2.28;;;25.60;84.40;;;;;;4972720;28;20050;-84
2021/07/19 11:59:40;;;;;;;3.65;2.20;;;25.60;83.60;;;;;;4972224;28;20058;-80
2021/07/19 12:02:09;;;;;;;4.03;2.20;;;25.60;84.00;;;;;;4972181;28;20050;-76
2021/07/19 12:04:38;;;;;;;3.70;2.25;;;25.60;83.40;;;;;;4972130;28;20489;-77
2021/07/19 12:07:06;;;;;;;5.00;2.60;;;25.70;82.90;;;;;;4972031;28;20051;-77
2021/07/19 12:09:34;;;;;;;3.90;2.10;;;25.60;81.90;;;;;;4972559;28;20047;-79
2021/07/19 12:12:02;;;;;;;4.10;2.20;;;25.70;80.60;;;;;;4971673;28;20594;-78
2021/07/19 12:14:30;;;;;;;3.97;2.00;;;25.70;79.80;;;;;;4972421;28;20059;-78
2021/07/19 12:16:58;;;;;;;3.78;1.90;;;25.80;79.20;;;;;;4972870;28;20404;-78
2021/07/19 12:19:26;;;;;;;3.50;1.80;;;25.90;78.60;;;;;;4979088;28;20115;-77
2021/07/19 12:21:57;;;;;;;3.65;2.00;;;26.00;78.80;;;;;;4979678;28;20515;-77
2021/07/19 12:24:27;;;;;;;3.92;2.30;;;26.10;78.90;;;;;;4978554;28;20055;-79
2021/07/19 12:26:56;;;;;;;4.18;2.40;;;26.20;79.10;;;;;;4979124;28;20580;-79
2021/07/19 12:29:29;;;;;;;3.65;1.90;;;26.30;78.30;;;;;;4972130;28;20050;-78
2021/07/19 12:32:00;;;;;;;3.45;1.70;;;26.30;78.60;;;;;;4972007;28;20093;-80
2021/07/19 12:34:33;;;;;;;4.38;2.25;;;26.40;78.40;;;;;;4971913;28;20061;-78
2021/07/19 12:37:03;;;;;;;4.70;1.90;;;26.40;75.70;;;;;;4971158;28;20134;-79
2021/07/19 12:39:32;;;;;;;4.88;2.40;;;26.40;74.80;;;;;;4971530;28;20038;-79
2021/07/19 12:42:04;;;;;;;3.35;1.67;;;26.40;75.20;;;;;;4972045;28;20137;-78
2021/07/19 12:44:33;;;;;;;2.72;1.50;;;26.50;76.10;;;;;;4971707;28;20059;-78
2021/07/19 12:47:01;;;;;;;3.92;1.88;;;26.50;76.20;;;;;;4971897;28;20061;-79
2021/07/19 12:49:32;;;;;;;4.47;2.45;;;26.60;75.90;;;;;;4971589;28;20043;-79
2021/07/19 12:52:02;;;;;;;3.75;2.10;;;26.70;74.30;;;;;;4971678;28;20494;-77
2021/07/19 12:54:30;;;;;;;5.40;2.10;;;26.80;74.50;;;;;;4971550;28;20082;-78